sensor_id;sensor_type;location;lat;lon;timestamp;P1;durP1;ratioP1;P2;durP2;ratioP2
24585;SDS011;12743;52.262;6.172;2024-02-28T00:01:27;185.15;;;23.80;;
24585;SDS011;12743;52.262;6.172;2024-02-28T00:03:53;84.30;;;18.00;;
24585;SDS011;12743;52.262;6.172;2024-02-28T00:06:20;98.20;;;19.10;;
24585;SDS011;12743;52.262;6.172;2024-02-28T00:08:47;150.38;;;23.42;;
24585;SDS011;12743;52.262;6.172;2024-02-28T00:11:17;149.27;;;21.83;;
24585;SDS011;12743;52.262;6.172;2024-02-28T00:13:43;156.10;;;23.27;;
24585;SDS011;12743;52.262;6.172;2024-02-28T00:16:10;101.95;;;20.48;;
24585;SDS011;12743;52.262;6.172;2024-02-28T00:18:37;103.97;;;21.70;;
24585;SDS011;12743;52.262;6.172;2024-02-28T00:21:04;127.47;;;21.38;;
24585;SDS011;12743;52.262;6.172;2024-02-28T00:23:31;153.03;;;25.00;;
24585;SDS011;12743;52.262;6.172;2024-02-28T00:25:58;124.57;;;19.60;;
24585;SDS011;12743;52.262;6.172;2024-02-28T00:28:25;105.97;;;20.92;;
24585;SDS011;12743;52.262;6.172;2024-02-28T00:30:52;82.40;;;20.08;;
24585;SDS011;12743;52.262;6.172;2024-02-28T00:33:19;92.20;;;19.13;;
24585;SDS011;12743;52.262;6.172;2024-02-28T00:35:45;97.57;;;20.00;;
24585;SDS011;12743;52.262;6.172;2024-02-28T00:38:12;87.97;;;20.25;;
24585;SDS011;12743;52.262;6.172;2024-02-28T00:40:39;58.03;;;16.77;;
24585;SDS011;12743;52.262;6.172;2024-02-28T00:43:06;101.32;;;21.85;;
24585;SDS011;12743;52.262;6.172;2024-02-28T00:45:32;79.97;;;18.65;;
24585;SDS011;12743;52.262;6.172;2024-02-28T00:47:59;89.73;;;19.23;;
24585;SDS011;12743;52.262;6.172;2024-02-28T00:50:26;88.43;;;19.23;;
24585;SDS011;12743;52.262;6.172;2024-02-28T00:52:53;92.72;;;19.35;;
24585;SDS011;12743;52.262;6.172;2024-02-28T00:55:20;82.40;;;19.65;;
24585;SDS011;12743;52.262;6.172;2024-02-28T00:57:46;72.85;;;18.15;;
24585;SDS011;12743;52.262;6.172;2024-02-28T01:00:13;98.70;;;20.63;;
24585;SDS011;12743;52.262;6.172;2024-02-28T01:02:40;78.53;;;18.60;;
24585;SDS011;12743;52.262;6.172;2024-02-28T01:05:09;107.47;;;21.33;;
24585;SDS011;12743;52.262;6.172;2024-02-28T01:07:36;78.63;;;19.65;;
24585;SDS011;12743;52.262;6.172;2024-02-28T01:10:03;83.75;;;19.05;;
24585;SDS011;12743;52.262;6.172;2024-02-28T01:12:30;113.07;;;20.87;;
24585;SDS011;12743;52.262;6.172;2024-02-28T01:14:57;89.57;;;19.90;;
24585;SDS011;12743;52.262;6.172;2024-02-28T01:17:24;118.70;;;21.38;;
24585;SDS011;12743;52.262;6.172;2024-02-28T01:19:50;81.20;;;18.30;;
24585;SDS011;12743;52.262;6.172;2024-02-28T01:22:17;81.45;;;19.45;;
24585;SDS011;12743;52.262;6.172;2024-02-28T01:24:44;89.93;;;20.00;;
24585;SDS011;12743;52.262;6.172;2024-02-28T01:27:11;111.30;;;19.70;;
24585;SDS011;12743;52.262;6.172;2024-02-28T01:29:37;96.60;;;19.70;;
24585;SDS011;12743;52.262;6.172;2024-02-28T01:32:04;101.88;;;21.10;;
24585;SDS011;12743;52.262;6.172;2024-02-28T01:34:31;80.50;;;17.75;;
24585;SDS011;12743;52.262;6.172;2024-02-28T01:36:57;82.17;;;19.20;;
24585;SDS011;12743;52.262;6.172;2024-02-28T01:39:24;88.45;;;20.40;;
24585;SDS011;12743;52.262;6.172;2024-02-28T01:41:52;123.20;;;22.85;;
24585;SDS011;12743;52.262;6.172;2024-02-28T01:44:19;126.38;;;21.08;;
24585;SDS011;12743;52.262;6.172;2024-02-28T01:46:46;68.30;;;16.85;;
24585;SDS011;12743;52.262;6.172;2024-02-28T01:49:13;78.63;;;19.77;;
24585;SDS011;12743;52.262;6.172;2024-02-28T01:51:41;87.78;;;20.20;;
24585;SDS011;12743;52.262;6.172;2024-02-28T01:54:08;94.78;;;19.50;;
24585;SDS011;12743;52.262;6.172;2024-02-28T01:56:35;126.03;;;23.10;;
24585;SDS011;12743;52.262;6.172;2024-02-28T01:59:03;74.10;;;18.67;;
24585;SDS011;12743;52.262;6.172;2024-02-28T02:01:30;123.23;;;21.97;;
24585;SDS011;12743;52.262;6.172;2024-02-28T02:03:57;86.15;;;19.83;;
24585;SDS011;12743;52.262;6.172;2024-02-28T02:06:24;99.30;;;20.27;;
24585;SDS011;12743;52.262;6.172;2024-02-28T02:08:50;75.03;;;18.75;;
24585;SDS011;12743;52.262;6.172;2024-02-28T02:11:17;62.70;;;18.08;;
24585;SDS011;12743;52.262;6.172;2024-02-28T02:13:50;97.63;;;21.20;;
24585;SDS011;12743;52.262;6.172;2024-02-28T02:16:18;135.95;;;22.98;;
24585;SDS011;12743;52.262;6.172;2024-02-28T02:18:46;93.72;;;22.08;;
24585;SDS011;12743;52.262;6.172;2024-02-28T02:21:15;70.78;;;18.17;;
24585;SDS011;12743;52.262;6.172;2024-02-28T02:23:44;128.20;;;25.48;;
24585;SDS011;12743;52.262;6.172;2024-02-28T02:26:11;97.50;;;22.47;;
24585;SDS011;12743;52.262;6.172;2024-02-28T02:28:37;96.15;;;22.10;;
24585;SDS011;12743;52.262;6.172;2024-02-28T02:31:04;116.00;;;22.52;;
24585;SDS011;12743;52.262;6.172;2024-02-28T02:33:31;81.03;;;20.13;;
24585;SDS011;12743;52.262;6.172;2024-02-28T02:35:58;88.15;;;20.40;;
24585;SDS011;12743;52.262;6.172;2024-02-28T02:38:25;116.20;;;22.03;;
24585;SDS011;12743;52.262;6.172;2024-02-28T02:40:52;80.88;;;19.17;;
24585;SDS011;12743;52.262;6.172;2024-02-28T02:43:18;75.90;;;19.50;;
24585;SDS011;12743;52.262;6.172;2024-02-28T02:45:45;79.63;;;20.25;;
24585;SDS011;12743;52.262;6.172;2024-02-28T02:48:12;86.35;;;20.92;;
24585;SDS011;12743;52.262;6.172;2024-02-28T02:50:39;70.40;;;19.57;;
24585;SDS011;12743;52.262;6.172;2024-02-28T02:53:09;99.35;;;21.17;;
24585;SDS011;12743;52.262;6.172;2024-02-28T02:55:36;86.88;;;22.38;;
24585;SDS011;12743;52.262;6.172;2024-02-28T02:58:03;132.98;;;24.27;;
24585;SDS011;12743;52.262;6.172;2024-02-28T03:00:30;78.95;;;20.90;;
24585;SDS011;12743;52.262;6.172;2024-02-28T03:02:57;103.80;;;22.50;;
24585;SDS011;12743;52.262;6.172;2024-02-28T03:05:23;118.65;;;23.40;;
24585;SDS011;12743;52.262;6.172;2024-02-28T03:07:50;113.05;;;23.30;;
24585;SDS011;12743;52.262;6.172;2024-02-28T03:10:17;101.32;;;23.13;;
24585;SDS011;12743;52.262;6.172;2024-02-28T03:12:44;102.32;;;22.50;;
24585;SDS011;12743;52.262;6.172;2024-02-28T03:15:10;106.73;;;23.27;;
24585;SDS011;12743;52.262;6.172;2024-02-28T03:17:37;83.45;;;20.48;;
24585;SDS011;12743;52.262;6.172;2024-02-28T03:20:04;90.45;;;21.52;;
24585;SDS011;12743;52.262;6.172;2024-02-28T03:22:33;114.35;;;24.17;;
24585;SDS011;12743;52.262;6.172;2024-02-28T03:25:00;83.57;;;20.92;;
24585;SDS011;12743;52.262;6.172;2024-02-28T03:27:27;82.70;;;20.50;;
24585;SDS011;12743;52.262;6.172;2024-02-28T03:29:53;75.75;;;19.40;;
24585;SDS011;12743;52.262;6.172;2024-02-28T03:32:20;83.45;;;19.98;;
24585;SDS011;12743;52.262;6.172;2024-02-28T03:34:47;91.45;;;22.13;;
24585;SDS011;12743;52.262;6.172;2024-02-28T03:37:15;76.35;;;20.00;;
24585;SDS011;12743;52.262;6.172;2024-02-28T03:39:42;67.33;;;18.17;;
24585;SDS011;12743;52.262;6.172;2024-02-28T03:42:08;73.13;;;19.67;;
24585;SDS011;12743;52.262;6.172;2024-02-28T03:44:35;67.68;;;18.60;;
24585;SDS011;12743;52.262;6.172;2024-02-28T03:47:02;75.93;;;21.02;;
24585;SDS011;12743;52.262;6.172;2024-02-28T03:49:29;87.30;;;22.58;;
24585;SDS011;12743;52.262;6.172;2024-02-28T03:51:56;89.63;;;21.33;;
24585;SDS011;12743;52.262;6.172;2024-02-28T03:54:23;84.18;;;22.65;;
24585;SDS011;12743;52.262;6.172;2024-02-28T03:56:50;74.60;;;20.70;;
24585;SDS011;12743;52.262;6.172;2024-02-28T03:59:17;106.07;;;23.23;;
24585;SDS011;12743;52.262;6.172;2024-02-28T04:01:43;81.25;;;21.23;;
24585;SDS011;12743;52.262;6.172;2024-02-28T04:04:10;64.73;;;19.67;;
24585;SDS011;12743;52.262;6.172;2024-02-28T04:06:37;71.45;;;20.55;;
24585;SDS011;12743;52.262;6.172;2024-02-28T04:09:04;73.03;;;20.73;;
24585;SDS011;12743;52.262;6.172;2024-02-28T04:11:31;70.95;;;21.60;;
24585;SDS011;12743;52.262;6.172;2024-02-28T04:13:58;92.78;;;23.00;;
24585;SDS011;12743;52.262;6.172;2024-02-28T04:16:25;81.80;;;21.20;;
24585;SDS011;12743;52.262;6.172;2024-02-28T04:18:51;86.85;;;21.88;;
24585;SDS011;12743;52.262;6.172;2024-02-28T04:21:18;78.60;;;21.02;;
24585;SDS011;12743;52.262;6.172;2024-02-28T04:23:45;87.03;;;22.08;;
24585;SDS011;12743;52.262;6.172;2024-02-28T04:26:12;91.78;;;23.30;;
24585;SDS011;12743;52.262;6.172;2024-02-28T04:28:38;76.93;;;20.23;;
24585;SDS011;12743;52.262;6.172;2024-02-28T04:31:05;84.63;;;21.92;;
24585;SDS011;12743;52.262;6.172;2024-02-28T04:33:33;88.05;;;22.55;;
24585;SDS011;12743;52.262;6.172;2024-02-28T04:36:00;84.32;;;23.00;;
24585;SDS011;12743;52.262;6.172;2024-02-28T04:38:27;82.10;;;21.52;;
24585;SDS011;12743;52.262;6.172;2024-02-28T04:40:53;72.90;;;20.07;;
24585;SDS011;12743;52.262;6.172;2024-02-28T04:43:20;82.03;;;22.15;;
24585;SDS011;12743;52.262;6.172;2024-02-28T04:45:47;84.07;;;23.42;;
24585;SDS011;12743;52.262;6.172;2024-02-28T04:48:14;82.25;;;21.08;;
24585;SDS011;12743;52.262;6.172;2024-02-28T04:50:41;91.40;;;24.75;;
24585;SDS011;12743;52.262;6.172;2024-02-28T04:53:08;74.17;;;21.67;;
24585;SDS011;12743;52.262;6.172;2024-02-28T04:55:35;68.18;;;19.55;;
24585;SDS011;12743;52.262;6.172;2024-02-28T04:58:01;73.32;;;21.23;;
24585;SDS011;12743;52.262;6.172;2024-02-28T05:00:28;77.38;;;23.40;;
24585;SDS011;12743;52.262;6.172;2024-02-28T05:02:55;79.82;;;21.73;;
24585;SDS011;12743;52.262;6.172;2024-02-28T05:05:22;74.40;;;21.43;;
24585;SDS011;12743;52.262;6.172;2024-02-28T05:07:49;76.07;;;20.80;;
24585;SDS011;12743;52.262;6.172;2024-02-28T05:10:16;76.22;;;22.08;;
24585;SDS011;12743;52.262;6.172;2024-02-28T05:12:42;68.57;;;20.00;;
24585;SDS011;12743;52.262;6.172;2024-02-28T05:15:09;73.82;;;22.13;;
24585;SDS011;12743;52.262;6.172;2024-02-28T05:17:36;69.97;;;21.13;;
24585;SDS011;12743;52.262;6.172;2024-02-28T05:20:03;71.28;;;21.70;;
24585;SDS011;12743;52.262;6.172;2024-02-28T05:22:30;66.68;;;21.30;;
24585;SDS011;12743;52.262;6.172;2024-02-28T05:24:57;73.25;;;21.77;;
24585;SDS011;12743;52.262;6.172;2024-02-28T05:27:24;70.55;;;21.70;;
24585;SDS011;12743;52.262;6.172;2024-02-28T05:29:51;64.80;;;22.13;;
24585;SDS011;12743;52.262;6.172;2024-02-28T05:32:17;64.72;;;19.65;;
24585;SDS011;12743;52.262;6.172;2024-02-28T05:34:45;66.95;;;19.92;;
24585;SDS011;12743;52.262;6.172;2024-02-28T05:37:12;69.13;;;21.23;;
24585;SDS011;12743;52.262;6.172;2024-02-28T05:39:39;61.38;;;19.35;;
24585;SDS011;12743;52.262;6.172;2024-02-28T05:42:06;65.23;;;20.20;;
24585;SDS011;12743;52.262;6.172;2024-02-28T05:44:33;69.38;;;19.90;;
24585;SDS011;12743;52.262;6.172;2024-02-28T05:47:00;66.00;;;20.42;;
24585;SDS011;12743;52.262;6.172;2024-02-28T05:49:27;71.47;;;23.55;;
24585;SDS011;12743;52.262;6.172;2024-02-28T05:51:54;75.00;;;22.70;;
24585;SDS011;12743;52.262;6.172;2024-02-28T05:54:22;73.17;;;22.83;;
24585;SDS011;12743;52.262;6.172;2024-02-28T05:56:49;72.35;;;22.90;;
24585;SDS011;12743;52.262;6.172;2024-02-28T05:59:16;85.22;;;24.23;;
24585;SDS011;12743;52.262;6.172;2024-02-28T06:01:43;72.00;;;23.33;;
24585;SDS011;12743;52.262;6.172;2024-02-28T06:04:10;67.40;;;21.88;;
24585;SDS011;12743;52.262;6.172;2024-02-28T06:06:37;71.83;;;22.60;;
24585;SDS011;12743;52.262;6.172;2024-02-28T06:09:04;68.70;;;22.55;;
24585;SDS011;12743;52.262;6.172;2024-02-28T06:11:30;61.70;;;20.42;;
24585;SDS011;12743;52.262;6.172;2024-02-28T06:13:57;68.40;;;25.52;;
24585;SDS011;12743;52.262;6.172;2024-02-28T06:16:24;56.90;;;20.40;;
24585;SDS011;12743;52.262;6.172;2024-02-28T06:18:51;64.50;;;23.40;;
24585;SDS011;12743;52.262;6.172;2024-02-28T06:21:17;58.08;;;20.15;;
24585;SDS011;12743;52.262;6.172;2024-02-28T06:23:44;63.20;;;22.10;;
24585;SDS011;12743;52.262;6.172;2024-02-28T06:26:11;59.13;;;19.40;;
24585;SDS011;12743;52.262;6.172;2024-02-28T06:28:44;59.60;;;20.98;;
24585;SDS011;12743;52.262;6.172;2024-02-28T06:31:14;63.17;;;22.70;;
24585;SDS011;12743;52.262;6.172;2024-02-28T06:33:42;54.45;;;18.88;;
24585;SDS011;12743;52.262;6.172;2024-02-28T06:36:10;68.90;;;22.35;;
24585;SDS011;12743;52.262;6.172;2024-02-28T06:38:37;62.70;;;23.20;;
24585;SDS011;12743;52.262;6.172;2024-02-28T06:41:04;64.20;;;23.60;;
24585;SDS011;12743;52.262;6.172;2024-02-28T06:43:34;67.73;;;23.67;;
24585;SDS011;12743;52.262;6.172;2024-02-28T06:46:04;67.68;;;23.15;;
24585;SDS011;12743;52.262;6.172;2024-02-28T06:48:31;63.70;;;22.08;;
24585;SDS011;12743;52.262;6.172;2024-02-28T06:50:58;61.75;;;21.63;;
24585;SDS011;12743;52.262;6.172;2024-02-28T06:53:25;43.15;;;15.35;;
24585;SDS011;12743;52.262;6.172;2024-02-28T06:55:52;50.80;;;19.03;;
24585;SDS011;12743;52.262;6.172;2024-02-28T06:58:19;54.85;;;20.60;;
24585;SDS011;12743;52.262;6.172;2024-02-28T07:00:46;63.55;;;22.42;;
24585;SDS011;12743;52.262;6.172;2024-02-28T07:03:19;54.28;;;20.65;;
24585;SDS011;12743;52.262;6.172;2024-02-28T07:05:46;53.03;;;20.60;;
24585;SDS011;12743;52.262;6.172;2024-02-28T07:08:13;57.07;;;20.70;;
24585;SDS011;12743;52.262;6.172;2024-02-28T07:10:40;54.60;;;19.08;;
24585;SDS011;12743;52.262;6.172;2024-02-28T07:13:09;53.60;;;21.92;;
24585;SDS011;12743;52.262;6.172;2024-02-28T07:15:37;47.55;;;18.88;;
24585;SDS011;12743;52.262;6.172;2024-02-28T07:18:04;40.63;;;15.13;;
24585;SDS011;12743;52.262;6.172;2024-02-28T07:20:31;44.70;;;18.10;;
24585;SDS011;12743;52.262;6.172;2024-02-28T07:22:59;43.28;;;18.38;;
24585;SDS011;12743;52.262;6.172;2024-02-28T07:25:25;45.03;;;18.98;;
24585;SDS011;12743;52.262;6.172;2024-02-28T07:27:52;44.13;;;17.67;;
24585;SDS011;12743;52.262;6.172;2024-02-28T07:30:19;52.30;;;21.58;;
24585;SDS011;12743;52.262;6.172;2024-02-28T07:32:46;47.07;;;19.07;;
24585;SDS011;12743;52.262;6.172;2024-02-28T07:35:16;48.25;;;20.23;;
24585;SDS011;12743;52.262;6.172;2024-02-28T07:37:42;48.78;;;21.42;;
24585;SDS011;12743;52.262;6.172;2024-02-28T07:40:10;48.75;;;23.13;;
24585;SDS011;12743;52.262;6.172;2024-02-28T07:42:36;54.28;;;25.13;;
24585;SDS011;12743;52.262;6.172;2024-02-28T07:45:05;48.53;;;21.20;;
24585;SDS011;12743;52.262;6.172;2024-02-28T07:47:31;56.88;;;22.67;;
24585;SDS011;12743;52.262;6.172;2024-02-28T07:49:58;53.95;;;23.45;;
24585;SDS011;12743;52.262;6.172;2024-02-28T07:52:25;46.90;;;20.73;;
24585;SDS011;12743;52.262;6.172;2024-02-28T07:54:53;48.22;;;19.98;;
24585;SDS011;12743;52.262;6.172;2024-02-28T07:57:21;52.00;;;22.83;;
24585;SDS011;12743;52.262;6.172;2024-02-28T07:59:48;45.55;;;20.10;;
24585;SDS011;12743;52.262;6.172;2024-02-28T08:02:15;50.78;;;22.45;;
24585;SDS011;12743;52.262;6.172;2024-02-28T08:04:42;54.45;;;25.38;;
24585;SDS011;12743;52.262;6.172;2024-02-28T08:07:09;48.97;;;21.42;;
24585;SDS011;12743;52.262;6.172;2024-02-28T08:09:36;51.40;;;22.90;;
24585;SDS011;12743;52.262;6.172;2024-02-28T08:12:03;57.67;;;27.48;;
24585;SDS011;12743;52.262;6.172;2024-02-28T08:14:30;53.85;;;24.85;;
24585;SDS011;12743;52.262;6.172;2024-02-28T08:16:57;53.03;;;24.92;;
24585;SDS011;12743;52.262;6.172;2024-02-28T08:19:24;53.28;;;25.23;;
24585;SDS011;12743;52.262;6.172;2024-02-28T08:21:51;55.30;;;24.97;;
24585;SDS011;12743;52.262;6.172;2024-02-28T08:24:18;50.90;;;23.67;;
24585;SDS011;12743;52.262;6.172;2024-02-28T08:26:45;58.08;;;29.13;;
24585;SDS011;12743;52.262;6.172;2024-02-28T08:29:13;58.08;;;26.08;;
24585;SDS011;12743;52.262;6.172;2024-02-28T08:31:40;50.90;;;23.95;;
24585;SDS011;12743;52.262;6.172;2024-02-28T08:34:08;53.17;;;23.77;;
24585;SDS011;12743;52.262;6.172;2024-02-28T08:36:35;59.45;;;26.83;;
24585;SDS011;12743;52.262;6.172;2024-02-28T08:39:03;58.80;;;25.05;;
24585;SDS011;12743;52.262;6.172;2024-02-28T08:41:31;57.65;;;26.45;;
24585;SDS011;12743;52.262;6.172;2024-02-28T08:44:00;53.08;;;25.00;;
24585;SDS011;12743;52.262;6.172;2024-02-28T08:46:27;52.20;;;24.83;;
24585;SDS011;12743;52.262;6.172;2024-02-28T08:48:54;51.47;;;25.25;;
24585;SDS011;12743;52.262;6.172;2024-02-28T08:51:21;52.42;;;26.27;;
24585;SDS011;12743;52.262;6.172;2024-02-28T08:53:48;57.28;;;26.52;;
24585;SDS011;12743;52.262;6.172;2024-02-28T08:56:15;53.22;;;25.38;;
24585;SDS011;12743;52.262;6.172;2024-02-28T08:58:42;55.43;;;26.03;;
24585;SDS011;12743;52.262;6.172;2024-02-28T09:01:14;49.75;;;24.27;;
24585;SDS011;12743;52.262;6.172;2024-02-28T09:03:42;58.83;;;29.10;;
24585;SDS011;12743;52.262;6.172;2024-02-28T09:06:10;47.60;;;24.38;;
24585;SDS011;12743;52.262;6.172;2024-02-28T09:08:37;54.97;;;24.90;;
24585;SDS011;12743;52.262;6.172;2024-02-28T09:11:03;50.63;;;25.13;;
24585;SDS011;12743;52.262;6.172;2024-02-28T09:13:32;56.25;;;27.58;;
24585;SDS011;12743;52.262;6.172;2024-02-28T09:15:59;53.60;;;28.45;;
24585;SDS011;12743;52.262;6.172;2024-02-28T09:18:26;57.25;;;25.98;;
24585;SDS011;12743;52.262;6.172;2024-02-28T09:20:53;48.80;;;24.30;;
24585;SDS011;12743;52.262;6.172;2024-02-28T09:23:20;54.60;;;28.90;;
24585;SDS011;12743;52.262;6.172;2024-02-28T09:25:47;53.53;;;25.58;;
24585;SDS011;12743;52.262;6.172;2024-02-28T09:28:14;56.83;;;28.73;;
24585;SDS011;12743;52.262;6.172;2024-02-28T09:30:42;52.15;;;26.25;;
24585;SDS011;12743;52.262;6.172;2024-02-28T09:33:18;51.17;;;24.20;;
24585;SDS011;12743;52.262;6.172;2024-02-28T09:35:46;52.50;;;24.47;;
24585;SDS011;12743;52.262;6.172;2024-02-28T09:38:13;45.05;;;23.65;;
24585;SDS011;12743;52.262;6.172;2024-02-28T09:40:40;54.25;;;26.55;;
24585;SDS011;12743;52.262;6.172;2024-02-28T09:43:06;51.15;;;25.35;;
24585;SDS011;12743;52.262;6.172;2024-02-28T09:45:59;57.28;;;27.65;;
24585;SDS011;12743;52.262;6.172;2024-02-28T09:48:27;56.93;;;24.77;;
24585;SDS011;12743;52.262;6.172;2024-02-28T09:50:59;55.60;;;25.50;;
24585;SDS011;12743;52.262;6.172;2024-02-28T09:53:26;57.03;;;26.92;;
24585;SDS011;12743;52.262;6.172;2024-02-28T09:55:53;55.00;;;25.27;;
24585;SDS011;12743;52.262;6.172;2024-02-28T09:58:20;55.95;;;27.88;;
24585;SDS011;12743;52.262;6.172;2024-02-28T10:00:49;64.27;;;33.50;;
24585;SDS011;12743;52.262;6.172;2024-02-28T10:03:18;59.25;;;26.80;;
24585;SDS011;12743;52.262;6.172;2024-02-28T10:05:49;59.28;;;26.30;;
24585;SDS011;12743;52.262;6.172;2024-02-28T10:08:16;60.03;;;26.17;;
24585;SDS011;12743;52.262;6.172;2024-02-28T10:10:47;53.38;;;25.42;;
24585;SDS011;12743;52.262;6.172;2024-02-28T10:13:18;58.87;;;30.30;;
24585;SDS011;12743;52.262;6.172;2024-02-28T10:15:45;59.00;;;26.60;;
24585;SDS011;12743;52.262;6.172;2024-02-28T10:18:12;61.38;;;29.27;;
24585;SDS011;12743;52.262;6.172;2024-02-28T10:20:40;59.58;;;26.42;;
24585;SDS011;12743;52.262;6.172;2024-02-28T10:23:07;60.83;;;28.85;;
24585;SDS011;12743;52.262;6.172;2024-02-28T10:25:46;57.07;;;26.03;;
24585;SDS011;12743;52.262;6.172;2024-02-28T10:28:23;61.38;;;26.42;;
24585;SDS011;12743;52.262;6.172;2024-02-28T10:30:49;58.25;;;28.00;;
24585;SDS011;12743;52.262;6.172;2024-02-28T10:33:17;64.50;;;28.73;;
24585;SDS011;12743;52.262;6.172;2024-02-28T10:35:44;60.88;;;27.80;;
24585;SDS011;12743;52.262;6.172;2024-02-28T10:38:11;62.03;;;28.53;;
24585;SDS011;12743;52.262;6.172;2024-02-28T10:40:40;58.72;;;26.17;;
24585;SDS011;12743;52.262;6.172;2024-02-28T10:43:10;60.30;;;26.77;;
24585;SDS011;12743;52.262;6.172;2024-02-28T10:45:38;61.53;;;27.73;;
24585;SDS011;12743;52.262;6.172;2024-02-28T10:48:25;61.10;;;29.38;;
24585;SDS011;12743;52.262;6.172;2024-02-28T10:50:52;71.20;;;27.37;;
24585;SDS011;12743;52.262;6.172;2024-02-28T10:53:22;61.92;;;28.85;;
24585;SDS011;12743;52.262;6.172;2024-02-28T10:55:56;70.30;;;31.13;;
24585;SDS011;12743;52.262;6.172;2024-02-28T10:58:27;56.83;;;25.90;;
24585;SDS011;12743;52.262;6.172;2024-02-28T11:00:59;62.00;;;28.42;;
24585;SDS011;12743;52.262;6.172;2024-02-28T11:03:26;59.20;;;27.13;;
24585;SDS011;12743;52.262;6.172;2024-02-28T11:05:53;58.67;;;26.52;;
24585;SDS011;12743;52.262;6.172;2024-02-28T11:08:23;60.47;;;27.45;;
24585;SDS011;12743;52.262;6.172;2024-02-28T11:10:57;54.65;;;26.33;;
24585;SDS011;12743;52.262;6.172;2024-02-28T11:13:30;58.63;;;27.75;;
24585;SDS011;12743;52.262;6.172;2024-02-28T11:16:06;59.43;;;28.77;;
24585;SDS011;12743;52.262;6.172;2024-02-28T11:18:34;57.83;;;25.70;;
24585;SDS011;12743;52.262;6.172;2024-02-28T11:21:01;57.15;;;26.92;;
24585;SDS011;12743;52.262;6.172;2024-02-28T11:23:36;58.72;;;26.52;;
24585;SDS011;12743;52.262;6.172;2024-02-28T11:26:03;52.47;;;25.63;;
24585;SDS011;12743;52.262;6.172;2024-02-28T11:28:30;52.10;;;26.13;;
24585;SDS011;12743;52.262;6.172;2024-02-28T11:30:57;54.55;;;26.63;;
24585;SDS011;12743;52.262;6.172;2024-02-28T11:33:24;57.83;;;26.38;;
24585;SDS011;12743;52.262;6.172;2024-02-28T11:35:57;54.53;;;25.63;;
24585;SDS011;12743;52.262;6.172;2024-02-28T11:38:24;52.35;;;26.05;;
24585;SDS011;12743;52.262;6.172;2024-02-28T11:40:54;51.83;;;25.53;;
24585;SDS011;12743;52.262;6.172;2024-02-28T11:43:24;48.05;;;23.67;;
24585;SDS011;12743;52.262;6.172;2024-02-28T11:45:53;52.90;;;27.48;;
24585;SDS011;12743;52.262;6.172;2024-02-28T11:48:21;50.35;;;25.75;;
24585;SDS011;12743;52.262;6.172;2024-02-28T11:50:48;55.47;;;28.08;;
24585;SDS011;12743;52.262;6.172;2024-02-28T11:53:17;57.30;;;27.93;;
24585;SDS011;12743;52.262;6.172;2024-02-28T11:55:45;55.28;;;27.00;;
24585;SDS011;12743;52.262;6.172;2024-02-28T11:58:14;55.80;;;26.55;;
24585;SDS011;12743;52.262;6.172;2024-02-28T12:00:47;51.33;;;28.95;;
24585;SDS011;12743;52.262;6.172;2024-02-28T12:03:21;51.03;;;26.55;;
24585;SDS011;12743;52.262;6.172;2024-02-28T12:05:49;53.33;;;27.70;;
24585;SDS011;12743;52.262;6.172;2024-02-28T12:08:17;54.15;;;25.80;;
24585;SDS011;12743;52.262;6.172;2024-02-28T12:10:45;48.88;;;25.33;;
24585;SDS011;12743;52.262;6.172;2024-02-28T12:13:19;45.40;;;22.88;;
24585;SDS011;12743;52.262;6.172;2024-02-28T12:15:46;50.47;;;26.35;;
24585;SDS011;12743;52.262;6.172;2024-02-28T12:18:15;52.03;;;28.80;;
24585;SDS011;12743;52.262;6.172;2024-02-28T12:20:41;48.15;;;24.92;;
24585;SDS011;12743;52.262;6.172;2024-02-28T12:23:08;50.60;;;25.88;;
24585;SDS011;12743;52.262;6.172;2024-02-28T12:25:35;52.97;;;25.17;;
24585;SDS011;12743;52.262;6.172;2024-02-28T12:28:03;53.67;;;27.33;;
24585;SDS011;12743;52.262;6.172;2024-02-28T12:30:39;56.30;;;26.07;;
24585;SDS011;12743;52.262;6.172;2024-02-28T12:33:08;51.33;;;25.98;;
24585;SDS011;12743;52.262;6.172;2024-02-28T12:35:35;48.33;;;23.10;;
24585;SDS011;12743;52.262;6.172;2024-02-28T12:38:03;63.45;;;29.45;;
24585;SDS011;12743;52.262;6.172;2024-02-28T12:40:29;54.83;;;28.70;;
24585;SDS011;12743;52.262;6.172;2024-02-28T12:42:56;57.87;;;29.23;;
24585;SDS011;12743;52.262;6.172;2024-02-28T12:45:23;55.75;;;27.15;;
24585;SDS011;12743;52.262;6.172;2024-02-28T12:47:50;53.20;;;27.25;;
24585;SDS011;12743;52.262;6.172;2024-02-28T12:50:17;51.88;;;25.38;;
24585;SDS011;12743;52.262;6.172;2024-02-28T12:52:44;53.15;;;26.15;;
24585;SDS011;12743;52.262;6.172;2024-02-28T12:55:11;49.53;;;24.50;;
24585;SDS011;12743;52.262;6.172;2024-02-28T12:57:40;49.63;;;22.27;;
24585;SDS011;12743;52.262;6.172;2024-02-28T13:00:07;56.00;;;28.23;;
24585;SDS011;12743;52.262;6.172;2024-02-28T13:02:34;48.10;;;22.63;;
24585;SDS011;12743;52.262;6.172;2024-02-28T13:05:01;51.85;;;24.30;;
24585;SDS011;12743;52.262;6.172;2024-02-28T13:07:29;55.67;;;26.63;;
24585;SDS011;12743;52.262;6.172;2024-02-28T13:09:56;53.42;;;25.23;;
24585;SDS011;12743;52.262;6.172;2024-02-28T13:12:23;54.30;;;25.67;;
24585;SDS011;12743;52.262;6.172;2024-02-28T13:14:50;54.22;;;26.15;;
24585;SDS011;12743;52.262;6.172;2024-02-28T13:17:16;49.83;;;23.13;;
24585;SDS011;12743;52.262;6.172;2024-02-28T13:19:43;49.33;;;21.83;;
24585;SDS011;12743;52.262;6.172;2024-02-28T13:22:10;52.65;;;26.15;;
24585;SDS011;12743;52.262;6.172;2024-02-28T13:24:37;49.15;;;24.00;;
24585;SDS011;12743;52.262;6.172;2024-02-28T13:27:04;52.90;;;24.20;;
24585;SDS011;12743;52.262;6.172;2024-02-28T13:29:31;56.83;;;27.30;;
24585;SDS011;12743;52.262;6.172;2024-02-28T13:31:58;53.17;;;23.93;;
24585;SDS011;12743;52.262;6.172;2024-02-28T13:34:25;48.55;;;24.85;;
24585;SDS011;12743;52.262;6.172;2024-02-28T13:36:52;47.25;;;24.15;;
24585;SDS011;12743;52.262;6.172;2024-02-28T13:39:19;48.53;;;23.80;;
24585;SDS011;12743;52.262;6.172;2024-02-28T13:41:46;53.47;;;25.08;;
24585;SDS011;12743;52.262;6.172;2024-02-28T13:44:17;50.10;;;24.73;;
24585;SDS011;12743;52.262;6.172;2024-02-28T13:46:45;48.42;;;24.83;;
24585;SDS011;12743;52.262;6.172;2024-02-28T13:49:12;51.13;;;24.85;;
24585;SDS011;12743;52.262;6.172;2024-02-28T13:51:41;54.63;;;26.15;;
24585;SDS011;12743;52.262;6.172;2024-02-28T13:54:08;48.83;;;23.05;;
24585;SDS011;12743;52.262;6.172;2024-02-28T13:56:35;49.40;;;22.87;;
24585;SDS011;12743;52.262;6.172;2024-02-28T13:59:02;51.90;;;23.42;;
24585;SDS011;12743;52.262;6.172;2024-02-28T14:01:28;51.75;;;23.95;;
24585;SDS011;12743;52.262;6.172;2024-02-28T14:03:55;53.60;;;25.17;;
24585;SDS011;12743;52.262;6.172;2024-02-28T14:06:22;52.63;;;28.10;;
24585;SDS011;12743;52.262;6.172;2024-02-28T14:08:49;54.93;;;25.67;;
24585;SDS011;12743;52.262;6.172;2024-02-28T14:11:18;51.05;;;25.20;;
24585;SDS011;12743;52.262;6.172;2024-02-28T14:13:45;53.22;;;25.50;;
24585;SDS011;12743;52.262;6.172;2024-02-28T14:16:11;53.28;;;24.98;;
24585;SDS011;12743;52.262;6.172;2024-02-28T14:18:38;55.70;;;25.40;;
24585;SDS011;12743;52.262;6.172;2024-02-28T14:21:05;50.73;;;25.77;;
24585;SDS011;12743;52.262;6.172;2024-02-28T14:23:33;51.65;;;24.95;;